Terminal Aerodrome Forecast
Issued by NWS

Home | Current Version | Previous Version | Text Only | Print | Product List | Glossary On
Versions: 1 2 3 4 5 6 7 8 9 10 11 12 13
709
FTUS42 KTAE 181120
TAFECP
TAF
KECP 181120Z 1812/1912 VRB03KT 5SM BR OVC003
     FM181400 20008KT 2SM -DZ BR OVC008
     FM181800 19005KT 6SM BR VCSH BKN015
     FM190200 00000KT 1SM BR OVC002=

USA.gov is the U.S. government's official web portal to all federal, state and local government web resources and services.